sensor_id;sensor_type;location;lat;lon;timestamp;P1;durP1;ratioP1;P2;durP2;ratioP2
39066;SDS011;24821;51.988;6.020;2023-05-21T00:00:46;4.18;;;2.63;;
39066;SDS011;24821;51.988;6.020;2023-05-21T00:03:12;2.35;;;2.20;;
39066;SDS011;24821;51.988;6.020;2023-05-21T00:05:40;3.00;;;2.78;;
39066;SDS011;24821;51.988;6.020;2023-05-21T00:08:05;3.25;;;2.30;;
39066;SDS011;24821;51.988;6.020;2023-05-21T00:10:31;12.70;;;2.88;;
39066;SDS011;24821;51.988;6.020;2023-05-21T00:12:56;3.47;;;3.15;;
39066;SDS011;24821;51.988;6.020;2023-05-21T00:15:22;2.70;;;2.50;;
39066;SDS011;24821;51.988;6.020;2023-05-21T00:17:47;2.22;;;2.13;;
39066;SDS011;24821;51.988;6.020;2023-05-21T00:20:13;3.78;;;2.22;;
39066;SDS011;24821;51.988;6.020;2023-05-21T00:22:40;3.25;;;2.85;;
39066;SDS011;24821;51.988;6.020;2023-05-21T00:25:09;2.60;;;2.30;;
39066;SDS011;24821;51.988;6.020;2023-05-21T00:27:35;2.75;;;2.55;;
39066;SDS011;24821;51.988;6.020;2023-05-21T00:30:01;3.72;;;2.58;;
39066;SDS011;24821;51.988;6.020;2023-05-21T00:32:28;2.97;;;2.78;;
39066;SDS011;24821;51.988;6.020;2023-05-21T00:34:53;3.20;;;2.90;;
39066;SDS011;24821;51.988;6.020;2023-05-21T00:37:19;3.40;;;3.10;;
39066;SDS011;24821;51.988;6.020;2023-05-21T00:39:45;3.15;;;2.95;;
39066;SDS011;24821;51.988;6.020;2023-05-21T00:42:11;3.03;;;2.72;;
39066;SDS011;24821;51.988;6.020;2023-05-21T00:44:42;5.75;;;2.88;;
39066;SDS011;24821;51.988;6.020;2023-05-21T00:47:09;4.10;;;2.95;;
39066;SDS011;24821;51.988;6.020;2023-05-21T00:49:36;3.33;;;3.03;;
39066;SDS011;24821;51.988;6.020;2023-05-21T00:52:01;3.88;;;3.25;;
39066;SDS011;24821;51.988;6.020;2023-05-21T00:54:27;3.20;;;2.95;;
39066;SDS011;24821;51.988;6.020;2023-05-21T00:56:54;3.13;;;2.92;;
39066;SDS011;24821;51.988;6.020;2023-05-21T00:59:20;5.72;;;2.90;;
39066;SDS011;24821;51.988;6.020;2023-05-21T01:01:45;2.65;;;2.45;;
39066;SDS011;24821;51.988;6.020;2023-05-21T01:04:17;3.75;;;3.08;;
39066;SDS011;24821;51.988;6.020;2023-05-21T01:06:44;2.95;;;2.75;;
39066;SDS011;24821;51.988;6.020;2023-05-21T01:09:10;3.15;;;2.85;;
39066;SDS011;24821;51.988;6.020;2023-05-21T01:14:04;2.92;;;2.72;;
39066;SDS011;24821;51.988;6.020;2023-05-21T01:16:32;3.60;;;3.30;;
39066;SDS011;24821;51.988;6.020;2023-05-21T01:19:00;3.92;;;3.58;;
39066;SDS011;24821;51.988;6.020;2023-05-21T01:21:28;3.10;;;2.90;;
39066;SDS011;24821;51.988;6.020;2023-05-21T01:23:54;2.92;;;2.72;;
39066;SDS011;24821;51.988;6.020;2023-05-21T01:26:20;3.55;;;3.22;;
39066;SDS011;24821;51.988;6.020;2023-05-21T01:28:46;2.92;;;2.72;;
39066;SDS011;24821;51.988;6.020;2023-05-21T01:31:15;4.07;;;2.97;;
39066;SDS011;24821;51.988;6.020;2023-05-21T01:33:49;3.40;;;3.10;;
39066;SDS011;24821;51.988;6.020;2023-05-21T01:36:24;2.40;;;2.30;;
39066;SDS011;24821;51.988;6.020;2023-05-21T01:38:59;3.47;;;3.17;;
39066;SDS011;24821;51.988;6.020;2023-05-21T01:41:32;4.13;;;3.53;;
39066;SDS011;24821;51.988;6.020;2023-05-21T01:44:01;4.97;;;3.65;;
39066;SDS011;24821;51.988;6.020;2023-05-21T01:46:30;2.80;;;2.60;;
39066;SDS011;24821;51.988;6.020;2023-05-21T01:48:58;4.05;;;2.90;;
39066;SDS011;24821;51.988;6.020;2023-05-21T01:51:24;3.40;;;3.10;;
39066;SDS011;24821;51.988;6.020;2023-05-21T01:53:50;6.20;;;3.30;;
39066;SDS011;24821;51.988;6.020;2023-05-21T01:56:16;3.00;;;2.80;;
39066;SDS011;24821;51.988;6.020;2023-05-21T01:58:42;3.15;;;2.95;;
39066;SDS011;24821;51.988;6.020;2023-05-21T02:01:08;3.38;;;3.03;;
39066;SDS011;24821;51.988;6.020;2023-05-21T02:03:33;4.10;;;2.90;;
39066;SDS011;24821;51.988;6.020;2023-05-21T02:05:59;2.42;;;2.22;;
39066;SDS011;24821;51.988;6.020;2023-05-21T02:08:24;3.58;;;2.65;;
39066;SDS011;24821;51.988;6.020;2023-05-21T02:10:51;2.88;;;2.67;;
39066;SDS011;24821;51.988;6.020;2023-05-21T02:13:16;2.72;;;2.53;;
39066;SDS011;24821;51.988;6.020;2023-05-21T02:15:44;4.43;;;3.35;;
39066;SDS011;24821;51.988;6.020;2023-05-21T02:18:11;3.55;;;3.10;;
39066;SDS011;24821;51.988;6.020;2023-05-21T02:20:40;3.20;;;2.90;;
39066;SDS011;24821;51.988;6.020;2023-05-21T02:23:07;3.30;;;3.10;;
39066;SDS011;24821;51.988;6.020;2023-05-21T02:25:32;3.30;;;2.95;;
39066;SDS011;24821;51.988;6.020;2023-05-21T02:27:58;3.88;;;3.35;;
39066;SDS011;24821;51.988;6.020;2023-05-21T02:30:24;3.13;;;2.80;;
39066;SDS011;24821;51.988;6.020;2023-05-21T02:32:50;3.20;;;3.00;;
39066;SDS011;24821;51.988;6.020;2023-05-21T02:35:17;3.38;;;3.08;;
39066;SDS011;24821;51.988;6.020;2023-05-21T02:37:42;3.60;;;2.90;;
39066;SDS011;24821;51.988;6.020;2023-05-21T02:40:08;3.45;;;3.15;;
39066;SDS011;24821;51.988;6.020;2023-05-21T02:42:35;3.05;;;2.80;;
39066;SDS011;24821;51.988;6.020;2023-05-21T02:45:03;4.30;;;2.83;;
39066;SDS011;24821;51.988;6.020;2023-05-21T02:47:32;3.45;;;3.15;;
39066;SDS011;24821;51.988;6.020;2023-05-21T02:49:58;4.45;;;3.80;;
39066;SDS011;24821;51.988;6.020;2023-05-21T02:52:24;4.07;;;3.35;;
39066;SDS011;24821;51.988;6.020;2023-05-21T02:54:50;3.30;;;3.00;;
39066;SDS011;24821;51.988;6.020;2023-05-21T02:57:16;3.70;;;3.17;;
39066;SDS011;24821;51.988;6.020;2023-05-21T02:59:42;6.05;;;3.50;;
39066;SDS011;24821;51.988;6.020;2023-05-21T03:02:08;3.90;;;3.50;;
39066;SDS011;24821;51.988;6.020;2023-05-21T03:04:33;4.10;;;2.85;;
39066;SDS011;24821;51.988;6.020;2023-05-21T03:07:02;5.85;;;3.35;;
39066;SDS011;24821;51.988;6.020;2023-05-21T03:09:29;3.75;;;3.45;;
39066;SDS011;24821;51.988;6.020;2023-05-21T03:11:54;5.13;;;3.20;;
39066;SDS011;24821;51.988;6.020;2023-05-21T03:14:20;2.97;;;2.65;;
39066;SDS011;24821;51.988;6.020;2023-05-21T03:16:45;3.10;;;2.90;;
39066;SDS011;24821;51.988;6.020;2023-05-21T03:19:14;5.30;;;3.95;;
39066;SDS011;24821;51.988;6.020;2023-05-21T03:21:39;3.88;;;3.58;;
39066;SDS011;24821;51.988;6.020;2023-05-21T03:24:05;3.22;;;3.03;;
39066;SDS011;24821;51.988;6.020;2023-05-21T03:26:31;3.60;;;3.30;;
39066;SDS011;24821;51.988;6.020;2023-05-21T03:28:57;3.58;;;3.28;;
39066;SDS011;24821;51.988;6.020;2023-05-21T03:31:23;4.00;;;3.55;;
39066;SDS011;24821;51.988;6.020;2023-05-21T03:33:50;4.13;;;3.80;;
39066;SDS011;24821;51.988;6.020;2023-05-21T03:36:16;4.75;;;3.40;;
39066;SDS011;24821;51.988;6.020;2023-05-21T03:38:42;5.63;;;3.40;;
39066;SDS011;24821;51.988;6.020;2023-05-21T03:41:07;4.03;;;3.58;;
39066;SDS011;24821;51.988;6.020;2023-05-21T03:43:34;11.07;;;3.28;;
39066;SDS011;24821;51.988;6.020;2023-05-21T03:45:59;5.43;;;3.95;;
39066;SDS011;24821;51.988;6.020;2023-05-21T03:48:25;3.78;;;3.40;;
39066;SDS011;24821;51.988;6.020;2023-05-21T03:50:51;7.45;;;3.58;;
39066;SDS011;24821;51.988;6.020;2023-05-21T03:53:16;3.85;;;3.50;;
39066;SDS011;24821;51.988;6.020;2023-05-21T03:55:42;3.90;;;3.60;;
39066;SDS011;24821;51.988;6.020;2023-05-21T03:58:07;4.45;;;3.80;;
39066;SDS011;24821;51.988;6.020;2023-05-21T04:00:34;3.50;;;3.20;;
39066;SDS011;24821;51.988;6.020;2023-05-21T04:03:01;6.50;;;3.67;;
39066;SDS011;24821;51.988;6.020;2023-05-21T04:05:27;9.88;;;3.83;;
39066;SDS011;24821;51.988;6.020;2023-05-21T04:07:53;4.15;;;3.75;;
39066;SDS011;24821;51.988;6.020;2023-05-21T04:10:19;3.92;;;3.17;;
39066;SDS011;24821;51.988;6.020;2023-05-21T04:12:45;5.25;;;3.30;;
39066;SDS011;24821;51.988;6.020;2023-05-21T04:15:13;6.32;;;3.88;;
39066;SDS011;24821;51.988;6.020;2023-05-21T04:17:42;4.35;;;3.72;;
39066;SDS011;24821;51.988;6.020;2023-05-21T04:20:09;4.35;;;3.58;;
39066;SDS011;24821;51.988;6.020;2023-05-21T04:22:40;8.15;;;3.83;;
39066;SDS011;24821;51.988;6.020;2023-05-21T04:25:09;5.40;;;3.38;;
39066;SDS011;24821;51.988;6.020;2023-05-21T04:27:35;3.65;;;3.10;;
39066;SDS011;24821;51.988;6.020;2023-05-21T04:30:01;6.60;;;3.60;;
39066;SDS011;24821;51.988;6.020;2023-05-21T04:32:28;4.78;;;3.38;;
39066;SDS011;24821;51.988;6.020;2023-05-21T04:34:55;4.13;;;3.80;;
39066;SDS011;24821;51.988;6.020;2023-05-21T04:37:20;4.88;;;3.83;;
39066;SDS011;24821;51.988;6.020;2023-05-21T04:39:48;4.88;;;3.38;;
39066;SDS011;24821;51.988;6.020;2023-05-21T04:42:14;3.70;;;3.40;;
39066;SDS011;24821;51.988;6.020;2023-05-21T04:44:40;4.43;;;3.63;;
39066;SDS011;24821;51.988;6.020;2023-05-21T04:47:08;3.95;;;3.47;;
39066;SDS011;24821;51.988;6.020;2023-05-21T04:49:34;6.07;;;3.80;;
39066;SDS011;24821;51.988;6.020;2023-05-21T04:52:00;3.45;;;3.13;;
39066;SDS011;24821;51.988;6.020;2023-05-21T04:54:26;4.03;;;3.67;;
39066;SDS011;24821;51.988;6.020;2023-05-21T04:56:52;3.95;;;3.65;;
39066;SDS011;24821;51.988;6.020;2023-05-21T04:59:17;4.32;;;3.83;;
39066;SDS011;24821;51.988;6.020;2023-05-21T05:01:44;3.97;;;3.58;;
39066;SDS011;24821;51.988;6.020;2023-05-21T05:04:09;5.95;;;3.95;;
39066;SDS011;24821;51.988;6.020;2023-05-21T05:06:35;5.43;;;3.65;;
39066;SDS011;24821;51.988;6.020;2023-05-21T05:09:00;5.53;;;3.75;;
39066;SDS011;24821;51.988;6.020;2023-05-21T05:11:26;4.68;;;3.55;;
39066;SDS011;24821;51.988;6.020;2023-05-21T05:13:52;3.50;;;3.30;;
39066;SDS011;24821;51.988;6.020;2023-05-21T05:16:17;3.85;;;3.55;;
39066;SDS011;24821;51.988;6.020;2023-05-21T05:18:49;3.78;;;3.53;;
39066;SDS011;24821;51.988;6.020;2023-05-21T05:21:17;7.47;;;4.07;;
39066;SDS011;24821;51.988;6.020;2023-05-21T05:23:44;4.57;;;3.47;;
39066;SDS011;24821;51.988;6.020;2023-05-21T05:26:09;5.10;;;4.70;;
39066;SDS011;24821;51.988;6.020;2023-05-21T05:28:35;5.60;;;4.03;;
39066;SDS011;24821;51.988;6.020;2023-05-21T05:31:00;6.15;;;3.95;;
39066;SDS011;24821;51.988;6.020;2023-05-21T05:33:26;3.17;;;2.97;;
39066;SDS011;24821;51.988;6.020;2023-05-21T05:35:51;4.40;;;3.78;;
39066;SDS011;24821;51.988;6.020;2023-05-21T05:38:17;4.28;;;3.88;;
39066;SDS011;24821;51.988;6.020;2023-05-21T05:40:43;3.53;;;3.20;;
39066;SDS011;24821;51.988;6.020;2023-05-21T05:43:08;5.03;;;4.25;;
39066;SDS011;24821;51.988;6.020;2023-05-21T05:45:34;6.68;;;4.30;;
39066;SDS011;24821;51.988;6.020;2023-05-21T05:47:59;4.75;;;3.25;;
39066;SDS011;24821;51.988;6.020;2023-05-21T05:50:25;4.13;;;3.83;;
39066;SDS011;24821;51.988;6.020;2023-05-21T05:52:51;6.82;;;4.05;;
39066;SDS011;24821;51.988;6.020;2023-05-21T05:55:17;5.28;;;3.90;;
39066;SDS011;24821;51.988;6.020;2023-05-21T05:57:42;4.60;;;4.20;;
39066;SDS011;24821;51.988;6.020;2023-05-21T06:00:08;4.97;;;3.97;;
39066;SDS011;24821;51.988;6.020;2023-05-21T06:02:34;4.63;;;3.90;;
39066;SDS011;24821;51.988;6.020;2023-05-21T06:05:01;4.50;;;4.10;;
39066;SDS011;24821;51.988;6.020;2023-05-21T06:07:27;6.40;;;4.32;;
39066;SDS011;24821;51.988;6.020;2023-05-21T06:09:53;4.80;;;4.40;;
39066;SDS011;24821;51.988;6.020;2023-05-21T06:12:19;4.38;;;3.97;;
39066;SDS011;24821;51.988;6.020;2023-05-21T06:14:45;5.47;;;4.78;;
39066;SDS011;24821;51.988;6.020;2023-05-21T06:17:12;4.78;;;4.38;;
39066;SDS011;24821;51.988;6.020;2023-05-21T06:19:38;5.32;;;4.38;;
39066;SDS011;24821;51.988;6.020;2023-05-21T06:22:04;5.03;;;4.57;;
39066;SDS011;24821;51.988;6.020;2023-05-21T06:24:29;4.65;;;3.88;;
39066;SDS011;24821;51.988;6.020;2023-05-21T06:26:55;4.43;;;4.03;;
39066;SDS011;24821;51.988;6.020;2023-05-21T06:29:20;5.57;;;5.07;;
39066;SDS011;24821;51.988;6.020;2023-05-21T06:31:46;4.60;;;4.20;;
39066;SDS011;24821;51.988;6.020;2023-05-21T06:34:12;5.15;;;4.10;;
39066;SDS011;24821;51.988;6.020;2023-05-21T06:36:38;5.05;;;4.53;;
39066;SDS011;24821;51.988;6.020;2023-05-21T06:39:04;7.03;;;4.50;;
39066;SDS011;24821;51.988;6.020;2023-05-21T06:41:29;5.35;;;4.28;;
39066;SDS011;24821;51.988;6.020;2023-05-21T06:43:55;5.13;;;4.68;;
39066;SDS011;24821;51.988;6.020;2023-05-21T06:46:20;6.03;;;4.10;;
39066;SDS011;24821;51.988;6.020;2023-05-21T06:48:46;4.78;;;4.38;;
39066;SDS011;24821;51.988;6.020;2023-05-21T06:51:12;5.68;;;5.03;;
39066;SDS011;24821;51.988;6.020;2023-05-21T06:53:37;4.90;;;4.50;;
39066;SDS011;24821;51.988;6.020;2023-05-21T06:56:03;5.13;;;4.45;;
39066;SDS011;24821;51.988;6.020;2023-05-21T06:58:29;6.13;;;4.40;;
39066;SDS011;24821;51.988;6.020;2023-05-21T07:00:58;4.40;;;4.00;;
39066;SDS011;24821;51.988;6.020;2023-05-21T07:03:25;5.05;;;4.60;;
39066;SDS011;24821;51.988;6.020;2023-05-21T07:05:51;5.78;;;4.93;;
39066;SDS011;24821;51.988;6.020;2023-05-21T07:08:17;6.22;;;5.50;;
39066;SDS011;24821;51.988;6.020;2023-05-21T07:10:43;7.97;;;5.22;;
39066;SDS011;24821;51.988;6.020;2023-05-21T07:13:10;4.88;;;4.38;;
39066;SDS011;24821;51.988;6.020;2023-05-21T07:15:36;9.15;;;5.65;;
39066;SDS011;24821;51.988;6.020;2023-05-21T07:18:01;6.13;;;5.63;;
39066;SDS011;24821;51.988;6.020;2023-05-21T07:20:27;6.18;;;5.10;;
39066;SDS011;24821;51.988;6.020;2023-05-21T07:22:53;5.35;;;4.95;;
39066;SDS011;24821;51.988;6.020;2023-05-21T07:25:19;7.68;;;5.28;;
39066;SDS011;24821;51.988;6.020;2023-05-21T07:27:44;5.45;;;5.00;;
39066;SDS011;24821;51.988;6.020;2023-05-21T07:30:10;5.53;;;5.13;;
39066;SDS011;24821;51.988;6.020;2023-05-21T07:32:36;5.07;;;4.68;;
39066;SDS011;24821;51.988;6.020;2023-05-21T07:35:02;5.80;;;5.25;;
39066;SDS011;24821;51.988;6.020;2023-05-21T07:37:28;6.03;;;5.15;;
39066;SDS011;24821;51.988;6.020;2023-05-21T07:39:55;5.15;;;4.65;;
39066;SDS011;24821;51.988;6.020;2023-05-21T07:42:22;5.13;;;4.65;;
39066;SDS011;24821;51.988;6.020;2023-05-21T07:44:48;4.32;;;4.03;;
39066;SDS011;24821;51.988;6.020;2023-05-21T07:47:13;5.15;;;4.65;;
39066;SDS011;24821;51.988;6.020;2023-05-21T07:49:39;6.30;;;3.78;;
39066;SDS011;24821;51.988;6.020;2023-05-21T07:52:05;5.82;;;4.53;;
39066;SDS011;24821;51.988;6.020;2023-05-21T07:54:31;5.28;;;3.85;;
39066;SDS011;24821;51.988;6.020;2023-05-21T07:56:56;5.57;;;4.20;;
39066;SDS011;24821;51.988;6.020;2023-05-21T07:59:22;5.35;;;4.53;;
39066;SDS011;24821;51.988;6.020;2023-05-21T08:01:48;5.22;;;4.70;;
39066;SDS011;24821;51.988;6.020;2023-05-21T08:04:14;4.57;;;4.07;;
39066;SDS011;24821;51.988;6.020;2023-05-21T08:06:39;8.05;;;4.45;;
39066;SDS011;24821;51.988;6.020;2023-05-21T08:09:05;5.35;;;4.57;;
39066;SDS011;24821;51.988;6.020;2023-05-21T08:11:30;5.18;;;4.70;;
39066;SDS011;24821;51.988;6.020;2023-05-21T08:13:56;6.13;;;4.93;;
39066;SDS011;24821;51.988;6.020;2023-05-21T08:16:22;6.45;;;5.00;;
39066;SDS011;24821;51.988;6.020;2023-05-21T08:18:51;8.60;;;5.75;;
39066;SDS011;24821;51.988;6.020;2023-05-21T08:21:16;5.82;;;5.30;;
39066;SDS011;24821;51.988;6.020;2023-05-21T08:23:42;9.63;;;5.78;;
39066;SDS011;24821;51.988;6.020;2023-05-21T08:26:08;5.53;;;4.97;;
39066;SDS011;24821;51.988;6.020;2023-05-21T08:28:37;8.93;;;6.05;;
39066;SDS011;24821;51.988;6.020;2023-05-21T08:31:03;13.50;;;6.43;;
39066;SDS011;24821;51.988;6.020;2023-05-21T08:33:28;6.80;;;6.25;;
39066;SDS011;24821;51.988;6.020;2023-05-21T08:35:54;6.43;;;5.82;;
39066;SDS011;24821;51.988;6.020;2023-05-21T08:38:20;7.03;;;6.22;;
39066;SDS011;24821;51.988;6.020;2023-05-21T08:40:45;9.40;;;6.97;;
39066;SDS011;24821;51.988;6.020;2023-05-21T08:43:14;8.20;;;7.40;;
39066;SDS011;24821;51.988;6.020;2023-05-21T08:45:41;7.40;;;6.72;;
39066;SDS011;24821;51.988;6.020;2023-05-21T08:48:09;6.28;;;5.72;;
39066;SDS011;24821;51.988;6.020;2023-05-21T08:50:38;6.63;;;6.03;;
39066;SDS011;24821;51.988;6.020;2023-05-21T08:53:05;9.00;;;6.25;;
39066;SDS011;24821;51.988;6.020;2023-05-21T08:55:30;7.55;;;6.70;;
39066;SDS011;24821;51.988;6.020;2023-05-21T08:57:57;6.82;;;6.22;;
39066;SDS011;24821;51.988;6.020;2023-05-21T09:00:22;7.50;;;6.68;;
39066;SDS011;24821;51.988;6.020;2023-05-21T09:02:48;8.10;;;7.55;;
39066;SDS011;24821;51.988;6.020;2023-05-21T09:05:18;9.32;;;8.30;;
39066;SDS011;24821;51.988;6.020;2023-05-21T09:10:22;6.95;;;6.47;;
39066;SDS011;24821;51.988;6.020;2023-05-21T09:12:51;8.70;;;7.95;;
39066;SDS011;24821;51.988;6.020;2023-05-21T09:15:17;8.05;;;7.32;;
39066;SDS011;24821;51.988;6.020;2023-05-21T09:17:45;7.93;;;7.28;;
39066;SDS011;24821;51.988;6.020;2023-05-21T09:20:12;10.02;;;7.45;;
39066;SDS011;24821;51.988;6.020;2023-05-21T09:22:46;9.20;;;7.97;;
39066;SDS011;24821;51.988;6.020;2023-05-21T09:25:19;11.10;;;8.20;;
39066;SDS011;24821;51.988;6.020;2023-05-21T09:27:51;8.70;;;6.57;;
39066;SDS011;24821;51.988;6.020;2023-05-21T09:30:18;8.05;;;7.35;;
39066;SDS011;24821;51.988;6.020;2023-05-21T09:32:44;7.28;;;6.55;;
39066;SDS011;24821;51.988;6.020;2023-05-21T09:35:18;7.25;;;6.45;;
39066;SDS011;24821;51.988;6.020;2023-05-21T09:37:46;14.00;;;8.23;;
39066;SDS011;24821;51.988;6.020;2023-05-21T09:40:13;13.85;;;9.13;;
39066;SDS011;24821;51.988;6.020;2023-05-21T09:42:41;7.25;;;6.30;;
39066;SDS011;24821;51.988;6.020;2023-05-21T09:45:09;10.32;;;6.13;;
39066;SDS011;24821;51.988;6.020;2023-05-21T09:47:42;7.82;;;6.60;;
39066;SDS011;24821;51.988;6.020;2023-05-21T09:50:12;7.50;;;5.90;;
39066;SDS011;24821;51.988;6.020;2023-05-21T09:52:38;10.70;;;6.95;;
39066;SDS011;24821;51.988;6.020;2023-05-21T09:55:09;9.77;;;6.82;;
39066;SDS011;24821;51.988;6.020;2023-05-21T09:57:45;7.05;;;5.32;;
39066;SDS011;24821;51.988;6.020;2023-05-21T10:03:32;9.50;;;6.45;;
39066;SDS011;24821;51.988;6.020;2023-05-21T10:06:04;12.13;;;6.45;;
39066;SDS011;24821;51.988;6.020;2023-05-21T10:08:34;8.32;;;5.25;;
39066;SDS011;24821;51.988;6.020;2023-05-21T10:11:02;10.07;;;6.78;;
39066;SDS011;24821;51.988;6.020;2023-05-21T10:13:33;6.82;;;5.45;;
39066;SDS011;24821;51.988;6.020;2023-05-21T10:16:07;8.63;;;6.75;;
39066;SDS011;24821;51.988;6.020;2023-05-21T10:18:33;5.60;;;5.00;;
39066;SDS011;24821;51.988;6.020;2023-05-21T10:21:01;8.32;;;6.20;;
39066;SDS011;24821;51.988;6.020;2023-05-21T10:23:28;6.55;;;5.90;;
39066;SDS011;24821;51.988;6.020;2023-05-21T10:25:54;7.57;;;5.88;;
39066;SDS011;24821;51.988;6.020;2023-05-21T10:28:20;9.25;;;5.38;;
39066;SDS011;24821;51.988;6.020;2023-05-21T10:30:47;9.10;;;5.70;;
39066;SDS011;24821;51.988;6.020;2023-05-21T10:33:18;12.25;;;5.13;;
39066;SDS011;24821;51.988;6.020;2023-05-21T10:35:46;6.68;;;5.47;;
39066;SDS011;24821;51.988;6.020;2023-05-21T10:38:15;9.60;;;6.18;;
39066;SDS011;24821;51.988;6.020;2023-05-21T10:40:46;10.70;;;6.25;;
39066;SDS011;24821;51.988;6.020;2023-05-21T10:46:23;7.93;;;7.22;;
39066;SDS011;24821;51.988;6.020;2023-05-21T10:49:22;7.43;;;6.47;;
39066;SDS011;24821;51.988;6.020;2023-05-21T10:55:20;8.35;;;6.65;;
39066;SDS011;24821;51.988;6.020;2023-05-21T10:59:56;8.13;;;7.32;;
39066;SDS011;24821;51.988;6.020;2023-05-21T11:02:24;10.75;;;7.65;;
39066;SDS011;24821;51.988;6.020;2023-05-21T11:04:56;7.93;;;7.22;;
39066;SDS011;24821;51.988;6.020;2023-05-21T11:10:38;8.05;;;6.93;;
39066;SDS011;24821;51.988;6.020;2023-05-21T11:18:22;8.38;;;7.55;;
39066;SDS011;24821;51.988;6.020;2023-05-21T11:21:03;8.35;;;7.55;;
39066;SDS011;24821;51.988;6.020;2023-05-21T11:23:51;8.68;;;7.45;;
39066;SDS011;24821;51.988;6.020;2023-05-21T11:26:18;9.43;;;7.78;;
39066;SDS011;24821;51.988;6.020;2023-05-21T11:31:30;7.55;;;6.82;;
39066;SDS011;24821;51.988;6.020;2023-05-21T11:37:38;6.65;;;6.15;;
39066;SDS011;24821;51.988;6.020;2023-05-21T11:39:41;7.57;;;6.68;;
39066;SDS011;24821;51.988;6.020;2023-05-21T11:42:11;12.65;;;7.65;;
39066;SDS011;24821;51.988;6.020;2023-05-21T11:44:40;8.50;;;6.40;;
39066;SDS011;24821;51.988;6.020;2023-05-21T11:47:10;9.25;;;6.70;;
39066;SDS011;24821;51.988;6.020;2023-05-21T11:49:40;7.20;;;6.47;;
39066;SDS011;24821;51.988;6.020;2023-05-21T11:52:07;9.35;;;6.50;;
39066;SDS011;24821;51.988;6.020;2023-05-21T11:54:50;6.78;;;6.05;;
39066;SDS011;24821;51.988;6.020;2023-05-21T11:57:21;9.18;;;6.72;;
39066;SDS011;24821;51.988;6.020;2023-05-21T11:59:50;7.43;;;6.65;;
39066;SDS011;24821;51.988;6.020;2023-05-21T12:02:17;7.72;;;6.60;;
39066;SDS011;24821;51.988;6.020;2023-05-21T12:04:44;7.13;;;6.40;;
39066;SDS011;24821;51.988;6.020;2023-05-21T12:07:10;7.72;;;6.82;;
39066;SDS011;24821;51.988;6.020;2023-05-21T12:09:41;7.63;;;5.80;;
39066;SDS011;24821;51.988;6.020;2023-05-21T12:12:08;7.05;;;6.45;;
39066;SDS011;24821;51.988;6.020;2023-05-21T12:14:35;8.40;;;6.20;;
39066;SDS011;24821;51.988;6.020;2023-05-21T12:17:02;7.00;;;6.10;;
39066;SDS011;24821;51.988;6.020;2023-05-21T12:19:35;9.52;;;6.70;;
39066;SDS011;24821;51.988;6.020;2023-05-21T12:22:04;9.27;;;6.82;;
39066;SDS011;24821;51.988;6.020;2023-05-21T12:24:31;9.80;;;6.03;;
39066;SDS011;24821;51.988;6.020;2023-05-21T12:26:59;8.48;;;7.38;;
39066;SDS011;24821;51.988;6.020;2023-05-21T12:29:29;11.07;;;6.50;;
39066;SDS011;24821;51.988;6.020;2023-05-21T12:31:58;8.68;;;6.65;;
39066;SDS011;24821;51.988;6.020;2023-05-21T12:37:03;8.75;;;5.93;;
39066;SDS011;24821;51.988;6.020;2023-05-21T12:39:53;11.77;;;7.07;;
39066;SDS011;24821;51.988;6.020;2023-05-21T12:42:24;7.80;;;6.43;;
39066;SDS011;24821;51.988;6.020;2023-05-21T12:44:51;8.27;;;5.65;;
39066;SDS011;24821;51.988;6.020;2023-05-21T12:47:17;7.65;;;6.05;;
39066;SDS011;24821;51.988;6.020;2023-05-21T12:49:44;7.53;;;5.68;;
39066;SDS011;24821;51.988;6.020;2023-05-21T12:52:12;8.57;;;6.68;;
39066;SDS011;24821;51.988;6.020;2023-05-21T12:54:40;9.02;;;7.10;;
39066;SDS011;24821;51.988;6.020;2023-05-21T12:57:08;10.25;;;6.72;;
39066;SDS011;24821;51.988;6.020;2023-05-21T12:59:38;11.20;;;6.28;;
39066;SDS011;24821;51.988;6.020;2023-05-21T13:02:08;8.18;;;6.22;;
39066;SDS011;24821;51.988;6.020;2023-05-21T13:04:37;7.00;;;5.65;;
39066;SDS011;24821;51.988;6.020;2023-05-21T13:07:02;7.05;;;6.30;;
39066;SDS011;24821;51.988;6.020;2023-05-21T13:09:28;7.97;;;6.25;;
39066;SDS011;24821;51.988;6.020;2023-05-21T13:11:53;6.68;;;6.07;;
39066;SDS011;24821;51.988;6.020;2023-05-21T13:14:19;10.25;;;6.82;;
39066;SDS011;24821;51.988;6.020;2023-05-21T13:16:45;7.10;;;5.72;;
39066;SDS011;24821;51.988;6.020;2023-05-21T13:19:11;7.47;;;6.78;;
39066;SDS011;24821;51.988;6.020;2023-05-21T13:21:39;10.07;;;6.25;;
39066;SDS011;24821;51.988;6.020;2023-05-21T13:24:04;7.13;;;6.03;;
39066;SDS011;24821;51.988;6.020;2023-05-21T13:26:31;8.35;;;5.88;;
39066;SDS011;24821;51.988;6.020;2023-05-21T13:28:57;7.88;;;6.93;;
39066;SDS011;24821;51.988;6.020;2023-05-21T13:31:22;7.50;;;6.25;;
39066;SDS011;24821;51.988;6.020;2023-05-21T13:33:48;8.15;;;6.47;;
39066;SDS011;24821;51.988;6.020;2023-05-21T13:36:13;7.85;;;5.97;;
39066;SDS011;24821;51.988;6.020;2023-05-21T13:38:39;8.50;;;5.68;;
39066;SDS011;24821;51.988;6.020;2023-05-21T13:41:04;6.95;;;6.28;;
39066;SDS011;24821;51.988;6.020;2023-05-21T13:43:30;7.07;;;6.05;;
39066;SDS011;24821;51.988;6.020;2023-05-21T13:45:56;12.43;;;7.07;;
39066;SDS011;24821;51.988;6.020;2023-05-21T13:48:22;7.15;;;5.65;;
39066;SDS011;24821;51.988;6.020;2023-05-21T13:50:47;6.25;;;5.75;;
39066;SDS011;24821;51.988;6.020;2023-05-21T13:53:13;5.97;;;5.35;;
39066;SDS011;24821;51.988;6.020;2023-05-21T13:55:38;6.90;;;6.10;;
39066;SDS011;24821;51.988;6.020;2023-05-21T13:58:04;7.18;;;5.35;;
39066;SDS011;24821;51.988;6.020;2023-05-21T14:00:29;7.30;;;5.82;;
39066;SDS011;24821;51.988;6.020;2023-05-21T14:02:55;6.13;;;5.60;;
39066;SDS011;24821;51.988;6.020;2023-05-21T14:05:21;7.20;;;6.38;;
39066;SDS011;24821;51.988;6.020;2023-05-21T14:07:46;7.32;;;6.40;;
39066;SDS011;24821;51.988;6.020;2023-05-21T14:10:12;7.30;;;6.50;;
39066;SDS011;24821;51.988;6.020;2023-05-21T14:12:38;10.05;;;6.78;;
39066;SDS011;24821;51.988;6.020;2023-05-21T14:15:04;6.47;;;5.43;;
39066;SDS011;24821;51.988;6.020;2023-05-21T14:17:31;7.43;;;6.32;;
39066;SDS011;24821;51.988;6.020;2023-05-21T14:19:57;6.40;;;5.65;;
39066;SDS011;24821;51.988;6.020;2023-05-21T14:22:22;8.55;;;7.43;;
39066;SDS011;24821;51.988;6.020;2023-05-21T14:24:48;12.10;;;8.32;;
39066;SDS011;24821;51.988;6.020;2023-05-21T14:27:14;11.27;;;7.00;;
39066;SDS011;24821;51.988;6.020;2023-05-21T14:29:40;7.05;;;6.45;;
39066;SDS011;24821;51.988;6.020;2023-05-21T14:32:05;8.48;;;6.55;;
39066;SDS011;24821;51.988;6.020;2023-05-21T14:34:31;8.45;;;5.65;;
39066;SDS011;24821;51.988;6.020;2023-05-21T14:36:57;9.23;;;6.95;;
39066;SDS011;24821;51.988;6.020;2023-05-21T14:39:22;7.90;;;6.28;;
39066;SDS011;24821;51.988;6.020;2023-05-21T14:41:48;8.13;;;7.32;;
39066;SDS011;24821;51.988;6.020;2023-05-21T14:44:14;7.63;;;6.85;;
39066;SDS011;24821;51.988;6.020;2023-05-21T14:46:39;7.72;;;6.97;;
39066;SDS011;24821;51.988;6.020;2023-05-21T14:49:05;6.88;;;6.38;;
39066;SDS011;24821;51.988;6.020;2023-05-21T14:51:30;9.00;;;7.15;;
39066;SDS011;24821;51.988;6.020;2023-05-21T14:53:56;7.93;;;7.28;;
39066;SDS011;24821;51.988;6.020;2023-05-21T14:56:36;17.58;;;8.10;;
39066;SDS011;24821;51.988;6.020;2023-05-21T14:59:01;7.28;;;6.57;;
39066;SDS011;24821;51.988;6.020;2023-05-21T15:01:30;7.18;;;6.53;;
39066;SDS011;24821;51.988;6.020;2023-05-21T15:03:56;13.52;;;8.27;;
39066;SDS011;24821;51.988;6.020;2023-05-21T15:06:22;7.53;;;6.32;;
39066;SDS011;24821;51.988;6.020;2023-05-21T15:08:48;12.95;;;8.25;;
39066;SDS011;24821;51.988;6.020;2023-05-21T15:11:13;9.07;;;8.18;;
39066;SDS011;24821;51.988;6.020;2023-05-21T15:13:39;8.02;;;7.43;;
39066;SDS011;24821;51.988;6.020;2023-05-21T15:16:05;7.60;;;6.93;;
39066;SDS011;24821;51.988;6.020;2023-05-21T15:18:30;7.63;;;6.85;;